createdAt,value
2018-09-10T00:00:44.958Z,0.68
2018-09-10T00:02:49.468Z,1.92
2018-09-10T00:04:54.006Z,1.63
2018-09-10T00:06:58.492Z,0.90
2018-09-10T00:09:03.024Z,1.17
2018-09-10T00:11:07.566Z,2.62
2018-09-10T00:13:11.999Z,1.63
2018-09-10T00:15:16.582Z,3.57
2018-09-10T00:17:21.062Z,2.27
2018-09-10T00:19:25.514Z,1.50
2018-09-10T00:21:30.130Z,1.00
2018-09-10T00:23:34.596Z,1.10
2018-09-10T00:25:40.182Z,1.93
2018-09-10T00:27:44.630Z,0.72
2018-09-10T00:29:49.329Z,1.03
2018-09-10T00:31:53.857Z,1.77
2018-09-10T00:33:58.298Z,1.17
2018-09-10T00:36:02.758Z,1.17
2018-09-10T00:38:07.203Z,1.92
2018-09-10T00:40:11.671Z,0.78
2018-09-10T00:42:16.382Z,0.77
2018-09-10T00:44:20.825Z,1.07
2018-09-10T00:46:25.289Z,1.13
2018-09-10T00:48:29.755Z,0.50
2018-09-10T00:50:34.357Z,2.90
2018-09-10T00:52:38.799Z,2.77
2018-09-10T00:54:43.266Z,2.37
2018-09-10T00:56:47.734Z,0.95
2018-09-10T00:58:52.689Z,5.08
2018-09-10T01:00:57.236Z,2.83
2018-09-10T01:03:01.664Z,1.17
2018-09-10T01:05:06.231Z,0.83
2018-09-10T01:07:10.721Z,1.07
2018-09-10T01:09:15.158Z,1.57
2018-09-10T01:11:21.266Z,0.97
2018-09-10T01:13:25.686Z,1.50
2018-09-10T01:15:30.146Z,1.60
2018-09-10T01:17:34.678Z,4.12
2018-09-10T01:19:39.154Z,1.47
2018-09-10T01:21:43.614Z,0.72
2018-09-10T01:23:48.067Z,1.87
2018-09-10T01:25:52.547Z,1.50
2018-09-10T01:27:57.075Z,1.00
2018-09-10T01:30:01.532Z,1.33
2018-09-10T01:32:06.023Z,0.93
2018-09-10T01:34:15.787Z,1.00
2018-09-10T01:36:20.859Z,1.03
2018-09-10T01:38:25.350Z,1.10
2018-09-10T01:40:29.841Z,1.57
2018-09-10T01:42:34.425Z,1.07
2018-09-10T01:44:38.854Z,1.63
2018-09-10T01:46:43.445Z,2.37
2018-09-10T01:48:48.819Z,1.45
2018-09-10T01:50:53.260Z,0.75
2018-09-10T01:52:57.876Z,1.27
2018-09-10T01:55:02.378Z,0.53
2018-09-10T01:57:06.867Z,0.78
2018-09-10T01:59:11.361Z,1.22
2018-09-10T02:01:16.013Z,1.23
2018-09-10T02:03:20.769Z,3.60
2018-09-10T02:05:25.262Z,1.10
2018-09-10T02:07:29.778Z,2.17
2018-09-10T02:09:34.842Z,2.22
2018-09-10T02:11:39.354Z,1.73
2018-09-10T02:13:43.875Z,1.30
2018-09-10T02:15:52.545Z,3.15
2018-09-10T02:17:57.053Z,0.80
2018-09-10T02:20:01.499Z,1.07
2018-09-10T02:22:06.249Z,0.73
2018-09-10T02:24:10.706Z,1.73
2018-09-10T02:26:15.190Z,1.30
2018-09-10T02:28:19.670Z,0.78
2018-09-10T02:30:24.324Z,2.45
2018-09-10T02:32:28.855Z,4.37
2018-09-10T02:34:33.316Z,0.63
2018-09-10T02:36:37.824Z,2.47
2018-09-10T02:38:42.317Z,2.15
2018-09-10T02:40:46.907Z,2.97
2018-09-10T02:42:51.387Z,1.53
2018-09-10T02:44:55.899Z,1.97
2018-09-10T02:47:00.411Z,1.37
2018-09-10T02:49:05.055Z,1.95
2018-09-10T02:51:09.600Z,1.82
2018-09-10T02:53:15.193Z,1.95
2018-09-10T02:55:20.303Z,1.27
2018-09-10T02:57:24.944Z,1.77
2018-09-10T02:59:29.460Z,3.80
2018-09-10T03:01:35.043Z,0.90
2018-09-10T03:03:39.575Z,1.20
2018-09-10T03:05:44.058Z,1.90
2018-09-10T03:07:48.730Z,1.20
2018-09-10T03:09:53.535Z,0.77
2018-09-10T03:11:57.948Z,0.90
2018-09-10T03:14:02.387Z,0.73
2018-09-10T03:16:06.910Z,0.80
2018-09-10T03:18:11.351Z,0.78
2018-09-10T03:20:15.783Z,0.77
2018-09-10T03:22:20.559Z,0.60
2018-09-10T03:24:25.106Z,1.20
2018-09-10T03:26:29.613Z,1.90
2018-09-10T03:28:35.190Z,2.07
2018-09-10T03:30:39.748Z,3.65
2018-09-10T03:32:44.637Z,2.35
2018-09-10T03:34:49.303Z,0.72
2018-09-10T03:36:54.168Z,2.20
2018-09-10T03:38:58.702Z,1.60
2018-09-10T03:41:03.174Z,0.60
2018-09-10T03:43:07.633Z,4.00
2018-09-10T03:45:12.103Z,1.63
2018-09-10T03:47:16.642Z,1.10
2018-09-10T03:49:21.143Z,0.80
2018-09-10T03:51:25.656Z,1.32
2018-09-10T03:53:30.409Z,0.80
2018-09-10T03:55:35.813Z,0.80
2018-09-10T03:57:40.704Z,1.92
2018-09-10T03:59:45.354Z,0.65
2018-09-10T04:01:50.098Z,0.80
2018-09-10T04:03:55.662Z,1.57
2018-09-10T04:06:00.139Z,1.27
2018-09-10T04:08:04.695Z,2.00
2018-09-10T04:10:09.215Z,1.23
2018-09-10T04:12:13.759Z,1.52
2018-09-10T04:14:18.186Z,1.47
2018-09-10T04:16:22.732Z,1.50
2018-09-10T04:18:27.839Z,0.93
2018-09-10T04:20:32.594Z,0.70
2018-09-10T04:22:37.407Z,1.23
2018-09-10T04:24:41.979Z,1.33
2018-09-10T04:26:46.447Z,2.58
2018-09-10T04:28:50.911Z,1.87
2018-09-10T04:30:55.982Z,1.67
2018-09-10T04:33:00.507Z,1.90
2018-09-10T04:35:05.372Z,1.40
2018-09-10T04:37:09.862Z,1.63
2018-09-10T04:39:14.323Z,1.80
2018-09-10T04:41:18.808Z,0.83
2018-09-10T04:43:23.235Z,1.63
2018-09-10T04:45:27.743Z,0.70
2018-09-10T04:47:32.258Z,0.78
2018-09-10T04:49:36.707Z,1.50
2018-09-10T04:51:41.175Z,2.77
2018-09-10T04:53:45.610Z,0.90
2018-09-10T04:55:50.040Z,1.00
2018-09-10T04:57:54.554Z,1.57
2018-09-10T04:59:59.046Z,1.27
2018-09-10T05:02:03.556Z,3.10
2018-09-10T05:04:08.053Z,3.52
2018-09-10T05:06:12.555Z,2.62
2018-09-10T05:08:16.976Z,1.10
2018-09-10T05:10:21.455Z,0.98
2018-09-10T05:12:25.949Z,0.88
2018-09-10T05:14:30.388Z,1.85
2018-09-10T05:16:34.883Z,1.30
2018-09-10T05:18:39.344Z,3.03
2018-09-10T05:20:43.819Z,1.75
2018-09-10T05:22:48.296Z,2.23
2018-09-10T05:24:52.743Z,2.53
2018-09-10T05:26:57.211Z,1.30
2018-09-10T05:29:01.730Z,1.40
2018-09-10T05:31:06.282Z,0.60
2018-09-10T05:33:10.785Z,0.70
2018-09-10T05:35:16.370Z,1.30
2018-09-10T05:37:20.881Z,2.70
2018-09-10T05:39:25.366Z,0.80
2018-09-10T05:41:30.080Z,1.52
2018-09-10T05:43:34.471Z,1.27
2018-09-10T05:45:38.995Z,1.73
2018-09-10T05:47:43.750Z,1.67
2018-09-10T05:49:48.210Z,1.77
2018-09-10T05:51:53.531Z,0.72
2018-09-10T05:53:58.070Z,0.60
2018-09-10T05:56:02.529Z,3.70
2018-09-10T05:58:07.040Z,3.22
2018-09-10T06:00:12.423Z,1.23
2018-09-10T06:02:18.461Z,3.70
2018-09-10T06:04:23.155Z,1.02
2018-09-10T06:06:27.586Z,0.70
2018-09-10T06:08:32.048Z,2.67
2018-09-10T06:10:37.096Z,1.90
2018-09-10T06:12:41.655Z,1.70
2018-09-10T06:14:46.083Z,1.20
2018-09-10T06:16:50.681Z,3.27
2018-09-10T06:18:55.149Z,2.37
2018-09-10T06:20:59.624Z,1.00
2018-09-10T06:23:04.207Z,0.75
2018-09-10T06:25:08.687Z,0.95
2018-09-10T06:27:13.155Z,1.17
2018-09-10T06:29:17.642Z,1.30
2018-09-10T06:31:22.226Z,0.97
2018-09-10T06:33:27.419Z,1.13
2018-09-10T06:35:31.996Z,1.25
2018-09-10T06:37:37.375Z,0.95
2018-09-10T06:39:41.820Z,1.77
2018-09-10T06:41:46.296Z,4.77
2018-09-10T06:43:51.035Z,1.77
2018-09-10T06:45:55.492Z,3.53
2018-09-10T06:48:00.494Z,1.60
2018-09-10T06:50:05.186Z,2.83
2018-09-10T06:52:09.885Z,1.95
2018-09-10T06:54:17.265Z,1.10
2018-09-10T06:56:23.731Z,3.00
2018-09-10T06:58:28.498Z,2.30
2018-09-10T07:00:33.044Z,1.30
2018-09-10T07:02:37.899Z,2.70
2018-09-10T07:04:42.364Z,2.22
2018-09-10T07:06:46.859Z,1.50
2018-09-10T07:08:51.339Z,2.65
2018-09-10T07:10:55.786Z,2.30
2018-09-10T07:13:00.311Z,2.27
2018-09-10T07:15:04.980Z,1.97
2018-09-10T07:17:09.449Z,0.83
2018-09-10T07:19:13.916Z,1.27
2018-09-10T07:21:18.631Z,2.07
2018-09-10T07:23:23.327Z,1.30
2018-09-10T07:25:27.796Z,1.70
2018-09-10T07:27:32.439Z,1.53
2018-09-10T07:29:37.742Z,2.07
2018-09-10T07:31:42.178Z,1.35
2018-09-10T07:33:47.518Z,0.72
2018-09-10T07:35:51.951Z,1.57
2018-09-10T07:37:57.553Z,1.03
2018-09-10T07:40:02.893Z,1.43
2018-09-10T07:42:07.482Z,1.67
2018-09-10T07:44:12.067Z,1.72
2018-09-10T07:46:17.658Z,1.93
2018-09-10T07:48:22.115Z,0.98
2018-09-10T07:50:26.572Z,4.60
2018-09-10T07:52:31.002Z,1.47
2018-09-10T07:54:35.509Z,1.20
2018-09-10T07:56:40.018Z,4.60
2018-09-10T07:58:44.598Z,2.27
2018-09-10T08:00:49.273Z,3.00
2018-09-10T08:02:53.742Z,3.40
2018-09-10T08:04:58.239Z,6.47
2018-09-10T08:07:02.682Z,7.40
2018-09-10T08:09:09.183Z,7.80
2018-09-10T08:11:13.963Z,11.12
2018-09-10T08:13:18.450Z,7.15
2018-09-10T08:15:22.928Z,9.73
2018-09-10T08:17:27.363Z,8.88
2018-09-10T08:19:32.226Z,9.58
2018-09-10T08:21:36.907Z,9.37
2018-09-10T08:23:41.610Z,9.10
2018-09-10T08:25:46.351Z,10.93
2018-09-10T08:27:51.303Z,15.53
2018-09-10T08:29:56.194Z,11.20
2018-09-10T08:32:01.027Z,9.40
2018-09-10T08:34:05.544Z,13.28
2018-09-10T08:36:09.990Z,11.50
2018-09-10T08:38:14.489Z,10.98
2018-09-10T08:40:19.711Z,10.47
2018-09-10T08:42:24.607Z,7.73
2018-09-10T08:44:30.694Z,9.43
2018-09-10T08:46:37.591Z,9.57
2018-09-10T08:48:44.409Z,10.23
2018-09-10T08:50:51.592Z,9.63
2018-09-10T08:52:56.071Z,7.17
2018-09-10T08:55:01.331Z,10.03
2018-09-10T08:57:05.860Z,12.43
2018-09-10T08:59:10.342Z,9.40
2018-09-10T09:01:14.882Z,11.77
2018-09-10T09:03:19.340Z,14.87
2018-09-10T09:05:24.170Z,13.60
2018-09-10T09:07:28.629Z,13.40
2018-09-10T09:09:33.115Z,10.43
2018-09-10T09:11:37.991Z,9.83
2018-09-10T09:13:42.471Z,13.27
2018-09-10T09:15:47.860Z,14.00
2018-09-10T09:17:52.306Z,10.10
2018-09-10T09:19:56.767Z,7.62
2018-09-10T09:22:01.504Z,11.00
2018-09-10T09:24:06.005Z,9.80
2018-09-10T09:26:10.508Z,12.43
2018-09-10T09:28:15.119Z,8.13
2018-09-10T09:30:19.710Z,9.40
2018-09-10T09:32:24.115Z,8.77
2018-09-10T09:34:33.983Z,11.23
2018-09-10T09:36:43.728Z,8.88
2018-09-10T09:38:53.411Z,10.32
2018-09-10T09:41:03.013Z,10.13
2018-09-10T09:43:12.611Z,11.25
2018-09-10T09:45:22.322Z,8.53
2018-09-10T09:47:26.930Z,11.00
2018-09-10T09:49:31.471Z,8.17
2018-09-10T09:51:35.943Z,12.63
2018-09-10T09:53:40.434Z,7.70
2018-09-10T09:55:45.187Z,7.47
2018-09-10T09:57:49.996Z,6.70
2018-09-10T09:59:54.771Z,6.97
2018-09-10T10:02:04.406Z,12.45
2018-09-10T10:04:10.999Z,8.80
2018-09-10T10:06:15.450Z,11.08
2018-09-10T10:08:20.132Z,6.78
2018-09-10T10:10:24.654Z,8.38
2018-09-10T10:12:29.627Z,5.25
2018-09-10T10:14:34.370Z,8.30
2018-09-10T10:16:39.235Z,6.13
2018-09-10T10:18:43.887Z,8.30
2018-09-10T10:20:48.414Z,8.00
2018-09-10T10:22:52.885Z,7.05
2018-09-10T10:24:57.326Z,5.97
2018-09-10T10:27:01.919Z,7.73
2018-09-10T10:29:06.739Z,6.70
2018-09-10T10:31:11.257Z,8.63
2018-09-10T10:33:15.719Z,5.05
2018-09-10T10:35:20.201Z,4.80
2018-09-10T10:37:24.670Z,7.37
2018-09-10T10:39:29.862Z,4.40
2018-09-10T10:41:34.426Z,5.55
2018-09-10T10:43:38.909Z,3.60
2018-09-10T10:45:43.460Z,6.83
2018-09-10T10:47:48.335Z,4.10
2018-09-10T10:49:52.914Z,5.03
2018-09-10T10:51:57.465Z,7.35
2018-09-10T10:54:02.025Z,8.75
2018-09-10T10:56:06.578Z,2.90
2018-09-10T10:58:11.281Z,7.17
2018-09-10T11:00:16.594Z,4.83
2018-09-10T11:02:21.507Z,3.85
2018-09-10T11:04:26.256Z,4.57
2018-09-10T11:06:30.930Z,5.50
2018-09-10T11:08:35.454Z,4.87
2018-09-10T11:10:40.954Z,6.25
2018-09-10T11:12:46.263Z,4.70
2018-09-10T11:14:50.815Z,5.95
2018-09-10T11:16:56.677Z,6.67
2018-09-10T11:19:02.336Z,5.60
2018-09-10T11:21:06.882Z,7.13
2018-09-10T11:23:11.435Z,8.00
2018-09-10T11:25:16.192Z,4.17
2018-09-10T11:27:20.835Z,6.67
2018-09-10T11:29:25.325Z,4.33
2018-09-10T11:31:29.831Z,5.28
2018-09-10T11:33:34.906Z,5.62
2018-09-10T11:35:39.363Z,4.28
2018-09-10T11:37:43.858Z,5.90
2018-09-10T11:39:49.214Z,5.53
2018-09-10T11:41:53.678Z,5.47
2018-09-10T11:43:58.172Z,5.90
2018-09-10T11:46:02.611Z,8.03
2018-09-10T11:48:07.348Z,5.65
2018-09-10T11:50:11.808Z,5.62
2018-09-10T11:52:17.449Z,5.30
2018-09-10T11:54:22.026Z,4.97
2018-09-10T11:56:26.630Z,9.87
2018-09-10T11:58:31.126Z,8.13
2018-09-10T12:00:38.152Z,4.57
2018-09-10T12:02:42.746Z,6.17
2018-09-10T12:04:47.617Z,5.33
2018-09-10T12:06:54.012Z,4.03
2018-09-10T12:09:03.985Z,7.42
2018-09-10T12:11:12.895Z,6.10
2018-09-10T12:13:17.662Z,5.60
2018-09-10T12:15:22.671Z,6.87
2018-09-10T12:17:28.240Z,4.58
2018-09-10T12:19:32.878Z,4.83
2018-09-10T12:21:37.390Z,6.17
2018-09-10T12:23:41.987Z,8.93
2018-09-10T12:25:46.658Z,5.20
2018-09-10T12:27:53.399Z,8.98
2018-09-10T12:29:57.978Z,6.55
2018-09-10T12:32:02.940Z,5.65
2018-09-10T12:34:08.635Z,4.97
2018-09-10T12:36:13.110Z,3.48
2018-09-10T12:38:17.629Z,5.22
2018-09-10T12:40:22.140Z,7.33
2018-09-10T12:42:26.915Z,4.47
2018-09-10T12:44:34.362Z,3.10
2018-09-10T12:46:38.866Z,5.83
2018-09-10T12:48:43.384Z,4.25
2018-09-10T12:50:48.510Z,7.45
2018-09-10T12:52:53.559Z,7.00
2018-09-10T12:54:58.226Z,5.37
2018-09-10T12:57:05.295Z,4.77
2018-09-10T12:59:10.119Z,4.87
2018-09-10T13:01:14.608Z,6.28
2018-09-10T13:03:19.090Z,5.10
2018-09-10T13:05:23.991Z,4.00
2018-09-10T13:07:28.455Z,3.93
2018-09-10T13:09:33.164Z,6.67
2018-09-10T13:11:37.614Z,3.15
2018-09-10T13:13:42.115Z,3.93
2018-09-10T13:15:46.578Z,5.17
2018-09-10T13:17:51.128Z,6.10
2018-09-10T13:19:55.560Z,3.05
2018-09-10T13:22:00.019Z,2.83
2018-09-10T13:24:04.545Z,6.90
2018-09-10T13:26:08.978Z,5.17
2018-09-10T13:28:13.423Z,4.08
2018-09-10T13:30:17.944Z,3.50
2018-09-10T13:32:22.503Z,3.75
2018-09-10T13:34:27.156Z,8.30
2018-09-10T13:36:31.741Z,4.45
2018-09-10T13:38:36.242Z,4.25
2018-09-10T13:40:40.776Z,4.15
2018-09-10T13:42:45.347Z,4.10
2018-09-10T13:44:49.852Z,2.55
2018-09-10T13:46:54.299Z,3.10
2018-09-10T13:48:58.766Z,4.00
2018-09-10T13:51:03.204Z,3.20
2018-09-10T13:53:07.947Z,3.42
2018-09-10T13:55:12.401Z,3.62
2018-09-10T13:57:16.871Z,2.95
2018-09-10T13:59:21.372Z,4.37
2018-09-10T14:01:25.935Z,3.70
2018-09-10T14:03:30.386Z,3.10
2018-09-10T14:05:35.499Z,2.80
2018-09-10T14:07:41.238Z,1.87
2018-09-10T14:09:45.835Z,3.07
2018-09-10T14:11:50.608Z,3.15
2018-09-10T14:13:55.093Z,2.76
2018-09-10T14:15:59.544Z,2.10
2018-09-10T14:18:04.038Z,2.33
2018-09-10T14:20:08.582Z,1.75
2018-09-10T14:22:13.071Z,2.87
2018-09-10T14:24:17.582Z,3.70
2018-09-10T14:26:22.156Z,3.45
2018-09-10T14:28:26.700Z,3.03
2018-09-10T14:30:31.210Z,1.63
2018-09-10T14:32:35.755Z,1.77
2018-09-10T14:34:40.348Z,1.52
2018-09-10T14:36:45.182Z,1.93
2018-09-10T14:38:50.663Z,2.58
2018-09-10T14:40:55.231Z,3.48
2018-09-10T14:42:59.747Z,3.25
2018-09-10T14:45:04.247Z,2.87
2018-09-10T14:47:08.715Z,2.40
2018-09-10T14:49:13.165Z,4.33
2018-09-10T14:51:17.639Z,2.80
2018-09-10T14:53:22.103Z,1.73
2018-09-10T14:55:27.026Z,2.47
2018-09-10T14:57:31.473Z,2.12
2018-09-10T14:59:35.968Z,1.30
2018-09-10T15:01:40.448Z,2.15
2018-09-10T15:03:44.944Z,3.20
2018-09-10T15:05:52.008Z,1.75
2018-09-10T15:07:56.551Z,3.27
2018-09-10T15:10:09.458Z,2.40
2018-09-10T15:12:14.015Z,1.37
2018-09-10T15:14:19.663Z,2.70
2018-09-10T15:16:24.238Z,3.50
2018-09-10T15:18:29.104Z,2.38
2018-09-10T15:20:33.636Z,3.05
2018-09-10T15:22:38.105Z,2.40
2018-09-10T15:24:42.716Z,2.57
2018-09-10T15:26:47.192Z,2.08
2018-09-10T15:28:51.699Z,1.65
2018-09-10T15:30:56.172Z,2.27
2018-09-10T15:33:00.634Z,4.97
2018-09-10T15:35:05.144Z,2.25
2018-09-10T15:37:09.638Z,2.22
2018-09-10T15:39:14.118Z,2.52
2018-09-10T15:41:18.564Z,2.63
2018-09-10T15:43:23.077Z,2.95
2018-09-10T15:45:27.518Z,3.30
2018-09-10T15:47:31.992Z,3.67
2018-09-10T15:49:36.452Z,3.20
2018-09-10T15:51:40.935Z,2.67
2018-09-10T15:53:46.354Z,2.92
2018-09-10T15:55:50.934Z,2.84
2018-09-10T15:57:55.410Z,2.07
2018-09-10T15:59:59.955Z,5.37
2018-09-10T16:02:04.411Z,3.15
2018-09-10T16:04:08.904Z,3.50
2018-09-10T16:06:13.531Z,4.00
2018-09-10T16:08:18.089Z,2.60
2018-09-10T16:10:24.774Z,5.67
2018-09-10T16:12:29.561Z,4.30
2018-09-10T16:14:34.045Z,1.97
2018-09-10T16:16:38.512Z,1.97
2018-09-10T16:18:43.007Z,2.58
2018-09-10T16:20:49.327Z,4.07
2018-09-10T16:22:54.446Z,2.92
2018-09-10T16:24:58.903Z,3.23
2018-09-10T16:27:03.457Z,1.60
2018-09-10T16:29:08.678Z,3.87
2018-09-10T16:31:13.176Z,6.10
2018-09-10T16:33:17.644Z,3.77
2018-09-10T16:35:22.147Z,12.93
2018-09-10T16:37:26.748Z,5.04
2018-09-10T16:39:31.255Z,3.87
2018-09-10T16:41:35.830Z,3.02
2018-09-10T16:43:40.292Z,5.27
2018-09-10T16:45:44.766Z,20.00
2018-09-10T16:47:49.196Z,6.37
2018-09-10T16:49:53.655Z,4.87
2018-09-10T16:51:58.179Z,4.53
2018-09-10T16:54:02.655Z,2.85
2018-09-10T16:56:07.215Z,7.40
2018-09-10T16:58:11.939Z,7.83
2018-09-10T17:00:16.397Z,4.63
2018-09-10T17:02:20.908Z,2.62
2018-09-10T17:04:25.426Z,5.33
2018-09-10T17:06:29.929Z,5.57
2018-09-10T17:08:34.401Z,1.37
2018-09-10T17:10:42.471Z,2.53
2018-09-10T17:12:46.999Z,2.72
2018-09-10T17:14:51.568Z,4.17
2018-09-10T17:16:56.021Z,4.62
2018-09-10T17:19:00.628Z,2.65
2018-09-10T17:21:05.263Z,2.80
2018-09-10T17:23:10.027Z,2.20
2018-09-10T17:25:14.571Z,5.20
2018-09-10T17:27:19.142Z,7.50
2018-09-10T17:29:23.632Z,2.37
2018-09-10T17:31:28.150Z,4.07
2018-09-10T17:33:32.830Z,3.50
2018-09-10T17:35:37.402Z,4.95
2018-09-10T17:37:41.987Z,2.02
2018-09-10T17:39:47.294Z,3.33
2018-09-10T17:41:51.826Z,2.57
2018-09-10T17:43:56.327Z,5.30
2018-09-10T17:46:00.808Z,4.00
2018-09-10T17:48:05.519Z,3.53
2018-09-10T17:50:10.463Z,4.53
2018-09-10T17:52:18.736Z,3.73
2018-09-10T17:54:23.431Z,4.00
2018-09-10T17:56:27.906Z,4.57
2018-09-10T17:58:32.471Z,2.17
2018-09-10T18:00:40.779Z,4.08
2018-09-10T18:02:45.207Z,4.07
2018-09-10T18:04:49.700Z,2.67
2018-09-10T18:06:54.159Z,3.03
2018-09-10T18:08:58.734Z,5.60
2018-09-10T18:11:03.252Z,4.33
2018-09-10T18:13:08.724Z,4.73
2018-09-10T18:15:13.258Z,5.92
2018-09-10T18:17:18.132Z,3.57
2018-09-10T18:19:22.911Z,4.30
2018-09-10T18:21:27.434Z,5.97
2018-09-10T18:23:32.506Z,6.37
2018-09-10T18:25:37.080Z,5.33
2018-09-10T18:27:41.740Z,5.42
2018-09-10T18:29:47.339Z,4.73
2018-09-10T18:31:51.892Z,4.67
2018-09-10T18:33:56.457Z,3.10
2018-09-10T18:36:01.021Z,3.47
2018-09-10T18:38:05.517Z,2.80
2018-09-10T18:40:10.038Z,6.83
2018-09-10T18:42:14.590Z,6.50
2018-09-10T18:44:19.170Z,5.40
2018-09-10T18:46:23.686Z,4.43
2018-09-10T18:48:28.179Z,3.57
2018-09-10T18:50:33.028Z,3.83
2018-09-10T18:52:37.482Z,2.67
2018-09-10T18:54:41.923Z,4.28
2018-09-10T18:56:46.449Z,3.63
2018-09-10T18:58:51.011Z,3.90
2018-09-10T19:00:55.502Z,2.98
2018-09-10T19:02:59.943Z,4.47
2018-09-10T19:05:04.414Z,4.73
2018-09-10T19:07:09.171Z,4.67
2018-09-10T19:09:13.691Z,6.00
2018-09-10T19:11:18.157Z,3.37
2018-09-10T19:13:22.817Z,4.75
2018-09-10T19:15:27.821Z,4.27
2018-09-10T19:17:32.385Z,3.35
2018-09-10T19:19:36.925Z,8.20
2018-09-10T19:21:42.795Z,6.30
2018-09-10T19:23:48.712Z,7.00
2018-09-10T19:25:57.111Z,3.50
2018-09-10T19:28:02.762Z,6.13
2018-09-10T19:30:08.582Z,3.17
2018-09-10T19:32:13.075Z,2.80
2018-09-10T19:34:17.611Z,5.37
2018-09-10T19:36:22.123Z,4.65
2018-09-10T19:38:26.731Z,3.33
2018-09-10T19:40:31.270Z,3.20
2018-09-10T19:42:35.754Z,3.72
2018-09-10T19:44:42.121Z,2.67
2018-09-10T19:46:46.744Z,4.90
2018-09-10T19:48:51.331Z,4.60
2018-09-10T19:50:55.970Z,3.58
2018-09-10T19:53:00.471Z,3.55
2018-09-10T19:55:05.285Z,5.00
2018-09-10T19:57:10.298Z,4.37
2018-09-10T19:59:14.838Z,7.55
2018-09-10T20:01:19.302Z,6.50
2018-09-10T20:03:23.899Z,3.25
2018-09-10T20:05:28.407Z,6.30
2018-09-10T20:07:33.223Z,4.30
2018-09-10T20:09:37.732Z,6.00
2018-09-10T20:11:42.376Z,2.35
2018-09-10T20:13:46.849Z,2.17
2018-09-10T20:15:51.330Z,3.30
2018-09-10T20:17:55.830Z,2.60
2018-09-10T20:20:00.323Z,2.22
2018-09-10T20:22:05.095Z,4.97
2018-09-10T20:24:09.602Z,4.78
2018-09-10T20:26:17.064Z,3.17
2018-09-10T20:28:21.871Z,2.60
2018-09-10T20:30:26.387Z,2.10
2018-09-10T20:32:30.811Z,2.07
2018-09-10T20:34:35.404Z,3.63
2018-09-10T20:36:40.208Z,4.50
2018-09-10T20:38:44.722Z,3.40
2018-09-10T20:40:49.181Z,3.30
2018-09-10T20:42:53.735Z,3.33
2018-09-10T20:44:58.975Z,2.90
2018-09-10T20:47:03.534Z,3.13
2018-09-10T20:49:08.987Z,4.47
2018-09-10T20:51:13.526Z,5.00
2018-09-10T20:53:18.035Z,4.93
2018-09-10T20:55:22.567Z,2.40
2018-09-10T20:57:27.223Z,4.90
2018-09-10T20:59:32.455Z,3.17
2018-09-10T21:01:37.041Z,3.67
2018-09-10T21:03:41.525Z,2.85
2018-09-10T21:05:46.019Z,4.15
2018-09-10T21:07:50.539Z,6.33
2018-09-10T21:09:55.001Z,1.62
2018-09-10T21:11:59.507Z,5.20
2018-09-10T21:14:05.060Z,2.47
2018-09-10T21:16:09.559Z,2.27
2018-09-10T21:18:14.956Z,4.23
2018-09-10T21:20:21.139Z,7.67
2018-09-10T21:22:25.705Z,1.80
2018-09-10T21:24:30.618Z,4.50
2018-09-10T21:26:35.240Z,5.30
2018-09-10T21:28:39.663Z,1.65
2018-09-10T21:30:44.293Z,3.80
2018-09-10T21:32:49.166Z,5.30
2018-09-10T21:34:53.716Z,2.52
2018-09-10T21:36:58.206Z,5.37
2018-09-10T21:39:02.834Z,3.93
2018-09-10T21:41:07.309Z,2.77
2018-09-10T21:43:11.787Z,4.60
2018-09-10T21:45:16.260Z,2.62
2018-09-10T21:47:20.751Z,4.87
2018-09-10T21:49:25.221Z,5.13
2018-09-10T21:51:29.766Z,2.70
2018-09-10T21:53:34.225Z,1.50
2018-09-10T21:55:38.859Z,2.60
2018-09-10T21:57:43.331Z,4.73
2018-09-10T21:59:47.894Z,3.47
2018-09-10T22:01:52.466Z,5.20
2018-09-10T22:03:57.506Z,5.37
2018-09-10T22:06:02.026Z,3.20
2018-09-10T22:08:08.332Z,5.17
2018-09-10T22:10:12.995Z,5.10
2018-09-10T22:12:17.401Z,4.73
2018-09-10T22:14:21.934Z,4.63
2018-09-10T22:16:26.470Z,2.52
2018-09-10T22:18:31.127Z,4.97
2018-09-10T22:20:35.650Z,5.03
2018-09-10T22:22:40.088Z,3.67
2018-09-10T22:24:44.616Z,4.23
2018-09-10T22:26:49.527Z,4.87
2018-09-10T22:28:54.388Z,4.28
2018-09-10T22:30:58.936Z,3.50
2018-09-10T22:33:03.383Z,3.12
2018-09-10T22:35:08.031Z,1.87
2018-09-10T22:37:12.509Z,3.20
2018-09-10T22:39:17.012Z,1.70
2018-09-10T22:41:21.454Z,3.53
2018-09-10T22:43:25.934Z,3.25
2018-09-10T22:45:30.485Z,3.30
2018-09-10T22:47:35.230Z,1.97
2018-09-10T22:49:39.662Z,4.97
2018-09-10T22:51:44.150Z,3.33
2018-09-10T22:53:49.851Z,4.87
2018-09-10T22:55:54.318Z,2.37
2018-09-10T22:57:58.815Z,1.98
2018-09-10T23:00:03.319Z,4.85
2018-09-10T23:02:07.791Z,5.92
2018-09-10T23:04:12.379Z,3.07
2018-09-10T23:06:16.947Z,3.23
2018-09-10T23:08:21.431Z,4.67
2018-09-10T23:10:25.929Z,4.53
2018-09-10T23:12:30.387Z,3.27
2018-09-10T23:14:34.843Z,4.33
2018-09-10T23:16:39.337Z,1.70
2018-09-10T23:18:43.836Z,2.15
2018-09-10T23:20:48.312Z,2.87
2018-09-10T23:22:53.020Z,3.10
2018-09-10T23:24:57.454Z,2.50
2018-09-10T23:27:01.960Z,3.33
2018-09-10T23:29:06.465Z,2.47
2018-09-10T23:31:11.615Z,1.77
2018-09-10T23:33:16.083Z,2.20
2018-09-10T23:35:20.522Z,3.87
2018-09-10T23:37:24.994Z,4.00
2018-09-10T23:39:30.148Z,3.47
2018-09-10T23:41:34.618Z,2.42
2018-09-10T23:43:39.351Z,2.92
2018-09-10T23:45:43.825Z,4.10
2018-09-10T23:47:48.613Z,2.40
2018-09-10T23:49:53.086Z,1.57
2018-09-10T23:51:57.638Z,4.37
2018-09-10T23:54:02.098Z,6.58
2018-09-10T23:56:06.640Z,3.03
2018-09-10T23:58:11.067Z,2.27
